createdAt,value
2023-01-13T00:01:23.879Z,80.84
2023-01-13T00:04:11.119Z,79.10
2023-01-13T00:06:57.052Z,77.96
2023-01-13T00:09:42.581Z,79.62
2023-01-13T00:12:27.878Z,78.16
2023-01-13T00:15:13.477Z,79.48
2023-01-13T00:17:59.357Z,80.05
2023-01-13T00:20:45.051Z,79.87
2023-01-13T00:23:32.459Z,80.13
2023-01-13T00:26:21.905Z,79.00
2023-01-13T00:29:07.303Z,80.11
2023-01-13T00:31:52.616Z,80.40
2023-01-13T00:34:38.050Z,79.91
2023-01-13T00:37:23.651Z,80.49
2023-01-13T00:40:09.862Z,80.29
2023-01-13T00:43:13.762Z,80.54
2023-01-13T00:45:59.935Z,79.63
2023-01-13T00:48:49.009Z,79.82
2023-01-13T00:51:36.369Z,80.28
2023-01-13T00:54:23.057Z,80.67
2023-01-13T00:57:08.965Z,79.06
2023-01-13T00:59:54.281Z,79.20
2023-01-13T01:02:39.802Z,79.49
2023-01-13T01:05:25.094Z,79.66
2023-01-13T01:08:10.502Z,79.05
2023-01-13T01:11:08.228Z,80.14
2023-01-13T01:13:56.026Z,80.30
2023-01-13T01:16:41.843Z,80.31
2023-01-13T01:19:27.137Z,80.91
2023-01-13T01:22:12.472Z,80.98
2023-01-13T01:25:00.738Z,79.50
2023-01-13T01:27:46.168Z,79.53
2023-01-13T01:30:31.549Z,79.89
2023-01-13T01:33:16.886Z,78.83
2023-01-13T01:36:03.524Z,79.92
2023-01-13T01:38:49.872Z,80.51
2023-01-13T01:41:36.988Z,80.82
2023-01-13T01:44:59.908Z,80.46
2023-01-13T01:47:50.119Z,80.76
2023-01-13T01:50:36.963Z,81.59
2023-01-13T01:53:26.377Z,79.06
2023-01-13T01:56:11.550Z,80.84
2023-01-13T01:58:57.207Z,79.74
2023-01-13T02:01:44.253Z,79.00
2023-01-13T02:04:34.756Z,78.37
2023-01-13T02:07:25.358Z,79.43
2023-01-13T02:10:14.112Z,81.12
2023-01-13T02:13:02.731Z,80.33
2023-01-13T02:16:08.559Z,78.84
2023-01-13T02:19:15.829Z,79.58
2023-01-13T02:22:38.931Z,80.12
2023-01-13T02:25:33.296Z,79.90
2023-01-13T02:29:08.388Z,80.64
2023-01-13T02:32:02.874Z,80.98
2023-01-13T02:35:13.300Z,79.48
2023-01-13T02:38:00.962Z,79.60
2023-01-13T02:40:55.863Z,79.61
2023-01-13T02:44:00.793Z,81.57
2023-01-13T02:46:52.168Z,78.83
2023-01-13T02:49:42.463Z,80.52
2023-01-13T02:52:58.783Z,78.23
2023-01-13T02:55:48.699Z,77.23
2023-01-13T02:58:36.918Z,77.96
2023-01-13T03:01:22.604Z,79.38
2023-01-13T03:04:45.764Z,79.79
2023-01-13T03:07:46.151Z,77.76
2023-01-13T03:10:50.114Z,78.96
2023-01-13T03:13:50.103Z,79.38
2023-01-13T03:17:01.633Z,79.36
2023-01-13T03:19:56.401Z,78.24
2023-01-13T03:23:09.695Z,79.69
2023-01-13T03:26:15.802Z,79.91
2023-01-13T03:29:52.045Z,80.27
2023-01-13T03:32:44.429Z,81.01
2023-01-13T03:35:38.199Z,79.18
2023-01-13T03:38:32.229Z,79.46
2023-01-13T03:41:23.439Z,81.53
2023-01-13T03:44:23.718Z,79.80
2023-01-13T03:47:38.143Z,78.76
2023-01-13T03:50:28.526Z,79.48
2023-01-13T03:53:28.378Z,78.81
2023-01-13T03:56:22.255Z,77.92
2023-01-13T03:59:12.068Z,79.07
2023-01-13T04:02:06.951Z,78.33
2023-01-13T04:04:59.862Z,78.69
2023-01-13T04:08:15.747Z,78.98
2023-01-13T04:11:07.756Z,78.82
2023-01-13T04:13:55.267Z,79.04
2023-01-13T04:16:41.861Z,79.52
2023-01-13T04:19:27.162Z,79.37
2023-01-13T04:22:12.614Z,79.90
2023-01-13T04:24:57.988Z,79.90
2023-01-13T04:27:43.340Z,80.04
2023-01-13T04:30:28.852Z,79.20
2023-01-13T04:33:15.195Z,80.40
2023-01-13T04:36:00.778Z,78.97
2023-01-13T04:38:45.985Z,78.98
2023-01-13T04:41:54.041Z,79.57
2023-01-13T04:44:39.466Z,79.72
2023-01-13T04:47:25.013Z,79.33
2023-01-13T04:50:11.762Z,80.03
2023-01-13T04:52:57.148Z,79.68
2023-01-13T04:55:44.495Z,79.95
2023-01-13T04:58:29.930Z,80.09
2023-01-13T05:01:15.414Z,80.26
2023-01-13T05:04:01.063Z,80.42
2023-01-13T05:06:46.440Z,80.38
2023-01-13T05:09:31.886Z,80.54
2023-01-13T05:12:35.767Z,79.85
2023-01-13T05:15:39.697Z,80.14
2023-01-13T05:18:26.052Z,81.21
2023-01-13T05:21:31.581Z,81.06
2023-01-13T05:24:35.678Z,81.13
2023-01-13T05:27:21.133Z,81.54
2023-01-13T05:30:07.976Z,80.65
2023-01-13T05:32:53.648Z,81.42
2023-01-13T05:35:40.374Z,80.91
2023-01-13T05:38:25.951Z,80.14
2023-01-13T05:41:29.883Z,79.67
2023-01-13T05:44:15.507Z,80.33
2023-01-13T05:47:01.153Z,81.54
2023-01-13T05:49:46.400Z,81.79
2023-01-13T05:52:32.237Z,82.64
2023-01-13T05:55:17.768Z,82.08
2023-01-13T05:58:03.237Z,82.87
2023-01-13T06:00:48.624Z,81.68
2023-01-13T06:03:34.431Z,81.08
2023-01-13T06:06:20.061Z,81.10
2023-01-13T06:09:05.566Z,81.80
2023-01-13T06:11:51.081Z,82.14
2023-01-13T06:14:42.338Z,82.33
2023-01-13T06:17:28.576Z,81.98
2023-01-13T06:20:15.226Z,82.53
2023-01-13T06:23:01.449Z,83.26
2023-01-13T06:26:04.370Z,83.55
2023-01-13T06:28:50.459Z,84.13
2023-01-13T06:31:39.052Z,84.10
2023-01-13T06:34:24.765Z,83.82
2023-01-13T06:37:12.776Z,84.55
2023-01-13T06:40:01.628Z,84.87
2023-01-13T06:43:05.876Z,85.00
2023-01-13T06:45:53.737Z,83.92
2023-01-13T06:48:39.348Z,85.45
2023-01-13T06:51:24.788Z,84.41
2023-01-13T06:54:10.065Z,84.49
2023-01-13T06:56:55.274Z,84.41
2023-01-13T06:59:40.846Z,85.29
2023-01-13T07:02:27.701Z,84.83
2023-01-13T07:05:13.719Z,85.42
2023-01-13T07:07:59.284Z,84.73
2023-01-13T07:10:44.602Z,85.06
2023-01-13T07:13:48.481Z,85.15
2023-01-13T07:16:33.982Z,84.94
2023-01-13T07:19:23.817Z,84.85
2023-01-13T07:22:09.456Z,85.13
2023-01-13T07:24:54.841Z,85.54
2023-01-13T07:27:40.243Z,85.37
2023-01-13T07:30:25.819Z,84.56
2023-01-13T07:33:11.104Z,84.25
2023-01-13T07:35:58.628Z,85.56
2023-01-13T07:38:44.813Z,85.40
2023-01-13T07:41:48.945Z,84.53
2023-01-13T07:44:34.372Z,84.25
2023-01-13T07:47:23.227Z,85.26
2023-01-13T07:50:09.502Z,84.00
2023-01-13T07:52:58.347Z,82.92
2023-01-13T07:55:44.103Z,83.58
2023-01-13T07:58:29.666Z,83.80
2023-01-13T08:01:16.815Z,82.74
2023-01-13T08:04:02.676Z,82.67
2023-01-13T08:06:48.301Z,82.32
2023-01-13T08:09:33.942Z,82.56
2023-01-13T08:12:38.116Z,82.86
2023-01-13T08:15:23.483Z,83.67
2023-01-13T08:18:09.529Z,82.92
2023-01-13T08:20:55.152Z,82.42
2023-01-13T08:23:42.245Z,83.63
2023-01-13T08:26:27.934Z,84.12
2023-01-13T08:29:15.001Z,82.58
2023-01-13T08:32:00.701Z,82.45
2023-01-13T08:34:46.140Z,82.91
2023-01-13T08:37:31.399Z,83.32
2023-01-13T08:40:17.911Z,83.03
2023-01-13T08:43:03.857Z,82.28
2023-01-13T08:46:00.986Z,82.87
2023-01-13T08:48:46.481Z,83.58
2023-01-13T08:51:31.965Z,82.96
2023-01-13T08:54:18.681Z,83.00
2023-01-13T08:57:03.961Z,83.53
2023-01-13T08:59:49.292Z,83.40
2023-01-13T09:02:35.012Z,83.66
2023-01-13T09:05:20.546Z,83.41
2023-01-13T09:08:06.138Z,83.45
2023-01-13T09:10:51.823Z,82.99
2023-01-13T09:13:37.455Z,83.39
2023-01-13T09:16:22.948Z,83.26
2023-01-13T09:19:08.173Z,81.96
2023-01-13T09:21:54.923Z,82.00
2023-01-13T09:24:40.539Z,82.52
2023-01-13T09:27:25.782Z,81.64
2023-01-13T09:30:11.742Z,80.00
2023-01-13T09:33:18.794Z,82.29
2023-01-13T09:36:04.398Z,81.62
2023-01-13T09:38:50.775Z,80.37
2023-01-13T09:42:01.131Z,80.79
2023-01-13T09:44:58.462Z,78.93
2023-01-13T09:47:56.718Z,80.50
2023-01-13T09:51:04.236Z,80.41
2023-01-13T09:53:57.509Z,79.89
2023-01-13T09:56:43.057Z,79.74
2023-01-13T09:59:36.386Z,81.14
2023-01-13T10:02:48.020Z,80.30
2023-01-13T10:05:45.087Z,79.09
2023-01-13T10:08:34.557Z,81.36
2023-01-13T10:11:43.849Z,82.29
2023-01-13T10:14:43.060Z,80.86
2023-01-13T10:17:56.368Z,81.50
2023-01-13T10:21:12.659Z,78.21
2023-01-13T10:24:11.358Z,79.62
2023-01-13T10:27:02.927Z,78.20
2023-01-13T10:29:48.124Z,78.46
2023-01-13T10:32:33.420Z,80.01
2023-01-13T10:35:18.945Z,80.52
2023-01-13T10:38:04.284Z,80.73
2023-01-13T10:40:58.695Z,80.71
2023-01-13T10:43:45.686Z,79.75
2023-01-13T10:46:51.116Z,77.72
2023-01-13T10:49:38.775Z,79.12
2023-01-13T10:52:26.015Z,77.89
2023-01-13T10:55:34.708Z,78.54
2023-01-13T10:58:21.348Z,79.35
2023-01-13T11:01:09.318Z,79.43
2023-01-13T11:03:55.600Z,79.70
2023-01-13T11:06:45.970Z,79.77
2023-01-13T11:09:32.817Z,79.71
2023-01-13T11:12:33.169Z,77.98
2023-01-13T11:15:23.669Z,77.27
2023-01-13T11:18:24.325Z,79.68
2023-01-13T11:21:28.630Z,80.26
2023-01-13T11:24:23.906Z,80.19
2023-01-13T11:27:21.995Z,81.11
2023-01-13T11:30:42.518Z,79.44
2023-01-13T11:33:49.828Z,78.79
2023-01-13T11:36:41.059Z,79.56
2023-01-13T11:39:49.721Z,77.56
2023-01-13T11:43:03.680Z,78.85
2023-01-13T11:45:56.400Z,79.98
2023-01-13T11:48:43.554Z,77.25
2023-01-13T11:51:35.332Z,80.07
2023-01-13T11:54:46.021Z,78.75
2023-01-13T11:58:03.705Z,77.10
2023-01-13T12:01:02.726Z,77.74
2023-01-13T12:04:09.745Z,78.09
2023-01-13T12:07:16.342Z,78.68
2023-01-13T12:10:17.583Z,77.20
2023-01-13T12:13:22.124Z,77.96
2023-01-13T12:16:20.082Z,79.19
2023-01-13T12:19:30.207Z,77.05
2023-01-13T12:22:30.551Z,77.83
2023-01-13T12:25:39.532Z,79.28
2023-01-13T12:28:34.658Z,78.68
2023-01-13T12:31:22.073Z,78.73
2023-01-13T12:34:22.527Z,78.32
2023-01-13T12:37:44.878Z,78.16
2023-01-13T12:40:49.134Z,79.16
2023-01-13T12:43:55.854Z,79.69
2023-01-13T12:46:47.386Z,82.58
2023-01-13T12:49:34.453Z,80.75
2023-01-13T12:52:20.202Z,80.31
2023-01-13T12:55:12.489Z,81.13
2023-01-13T12:58:07.096Z,81.72
2023-01-13T13:01:10.517Z,82.42
2023-01-13T13:04:51.992Z,82.64
2023-01-13T13:07:43.723Z,82.93
2023-01-13T13:10:33.870Z,83.36
2023-01-13T13:13:48.567Z,83.95
2023-01-13T13:16:49.533Z,83.88
2023-01-13T13:19:34.910Z,83.49
2023-01-13T13:22:20.245Z,84.59
2023-01-13T13:25:05.521Z,85.00
2023-01-13T13:28:04.616Z,84.91
2023-01-13T13:31:08.196Z,84.28
2023-01-13T13:34:05.223Z,84.89
2023-01-13T13:37:06.630Z,84.28
2023-01-13T13:40:11.469Z,84.41
2023-01-13T13:43:16.500Z,84.37
2023-01-13T13:46:20.479Z,83.87
2023-01-13T13:49:05.950Z,83.55
2023-01-13T13:52:04.351Z,83.27
2023-01-13T13:54:54.054Z,81.45
2023-01-13T13:57:42.467Z,82.85
2023-01-13T14:00:34.229Z,82.56
2023-01-13T14:03:30.596Z,84.14
2023-01-13T14:06:24.357Z,83.11
2023-01-13T14:09:17.526Z,83.56
2023-01-13T14:12:06.674Z,83.00
2023-01-13T14:14:54.355Z,84.56
2023-01-13T14:17:39.742Z,83.55
2023-01-13T14:20:25.190Z,81.75
2023-01-13T14:23:18.093Z,82.73
2023-01-13T14:26:13.090Z,83.39
2023-01-13T14:29:01.173Z,83.19
2023-01-13T14:31:48.736Z,83.33
2023-01-13T14:34:35.464Z,83.47
2023-01-13T14:37:40.298Z,84.05
2023-01-13T14:40:46.845Z,84.21
2023-01-13T14:43:32.304Z,83.48
2023-01-13T14:46:19.283Z,83.42
2023-01-13T14:49:04.959Z,84.32
2023-01-13T14:51:51.283Z,83.92
2023-01-13T14:54:51.144Z,83.84
2023-01-13T14:57:39.533Z,84.04
2023-01-13T15:00:25.979Z,84.44
2023-01-13T15:03:14.705Z,84.19
2023-01-13T15:06:00.193Z,84.99
2023-01-13T15:08:45.615Z,84.98
2023-01-13T15:11:30.999Z,84.49
2023-01-13T15:14:29.992Z,84.68
2023-01-13T15:17:17.614Z,84.83
2023-01-13T15:20:03.307Z,84.66
2023-01-13T15:22:52.167Z,85.32
2023-01-13T15:25:41.322Z,85.25
2023-01-13T15:28:26.995Z,85.11
2023-01-13T15:31:12.296Z,84.88
2023-01-13T15:33:58.946Z,84.83
2023-01-13T15:36:44.656Z,85.41
2023-01-13T15:39:30.544Z,85.14
2023-01-13T15:42:34.531Z,85.97
2023-01-13T15:45:38.771Z,85.42
2023-01-13T15:48:26.303Z,85.53
2023-01-13T15:51:12.172Z,85.70
2023-01-13T15:54:02.472Z,86.10
2023-01-13T15:56:47.688Z,85.89
2023-01-13T15:59:33.897Z,86.30
2023-01-13T16:02:19.669Z,85.52
2023-01-13T16:05:06.206Z,85.56
2023-01-13T16:07:51.887Z,85.10
2023-01-13T16:10:37.032Z,85.24
2023-01-13T16:13:22.387Z,84.49
2023-01-13T16:16:20.666Z,84.66
2023-01-13T16:19:06.013Z,83.99
2023-01-13T16:21:53.004Z,84.62
2023-01-13T16:24:39.428Z,84.45
2023-01-13T16:27:25.767Z,84.74
2023-01-13T16:30:35.598Z,85.17
2023-01-13T16:33:21.198Z,85.02
2023-01-13T16:36:16.166Z,84.77
2023-01-13T16:39:02.102Z,84.68
2023-01-13T16:41:52.083Z,84.80
2023-01-13T16:44:37.554Z,85.13
2023-01-13T16:47:24.152Z,85.07
2023-01-13T16:50:22.670Z,84.91
2023-01-13T16:53:10.113Z,84.42
2023-01-13T16:55:55.456Z,84.51
2023-01-13T16:58:40.755Z,84.39
2023-01-13T17:01:34.661Z,84.96
2023-01-13T17:04:23.477Z,84.47
2023-01-13T17:07:10.876Z,84.68
2023-01-13T17:09:56.426Z,85.06
2023-01-13T17:12:42.410Z,84.68
2023-01-13T17:15:28.003Z,84.63
2023-01-13T17:18:13.931Z,84.28
2023-01-13T17:21:00.160Z,84.04
2023-01-13T17:23:45.807Z,83.83
2023-01-13T17:26:37.394Z,84.41
2023-01-13T17:29:25.173Z,83.52
2023-01-13T17:32:21.440Z,83.12
2023-01-13T17:35:07.766Z,82.98
2023-01-13T17:37:53.958Z,83.16
2023-01-13T17:40:39.441Z,82.87
2023-01-13T17:43:26.477Z,84.50
2023-01-13T17:46:13.373Z,84.05
2023-01-13T17:48:58.838Z,83.32
2023-01-13T17:51:49.088Z,82.63
2023-01-13T17:54:35.100Z,84.54
2023-01-13T17:57:20.746Z,84.64
2023-01-13T18:00:06.753Z,84.17
2023-01-13T18:02:57.518Z,84.05
2023-01-13T18:05:44.163Z,84.21
2023-01-13T18:08:29.907Z,85.13
2023-01-13T18:11:20.638Z,84.19
2023-01-13T18:14:06.618Z,84.28
2023-01-13T18:16:52.577Z,82.51
2023-01-13T18:19:56.477Z,82.97
2023-01-13T18:23:00.604Z,82.33
2023-01-13T18:26:05.555Z,83.18
2023-01-13T18:28:50.887Z,83.27
2023-01-13T18:31:36.269Z,82.82
2023-01-13T18:34:21.580Z,82.83
2023-01-13T18:37:08.351Z,81.82
2023-01-13T18:39:54.096Z,82.40
2023-01-13T18:42:52.270Z,82.19
2023-01-13T18:45:37.903Z,80.47
2023-01-13T18:48:23.353Z,81.31
2023-01-13T18:51:08.978Z,80.30
2023-01-13T18:53:54.178Z,80.71
2023-01-13T18:56:39.502Z,79.93
2023-01-13T18:59:25.330Z,80.65
2023-01-13T19:02:17.141Z,79.99
2023-01-13T19:05:03.028Z,79.42
2023-01-13T19:07:51.267Z,79.65
2023-01-13T19:10:39.735Z,79.46
2023-01-13T19:13:25.417Z,78.53
2023-01-13T19:16:10.869Z,79.33
2023-01-13T19:18:56.315Z,78.68
2023-01-13T19:21:41.631Z,78.92
2023-01-13T19:24:28.336Z,78.82
2023-01-13T19:27:15.143Z,78.99
2023-01-13T19:30:01.868Z,78.58
2023-01-13T19:32:48.355Z,78.48
2023-01-13T19:35:36.577Z,78.88
2023-01-13T19:38:23.540Z,78.35
2023-01-13T19:41:28.763Z,79.53
2023-01-13T19:44:32.932Z,79.37
2023-01-13T19:47:19.280Z,79.22
2023-01-13T19:50:08.068Z,80.07
2023-01-13T19:53:56.853Z,79.27
2023-01-13T19:56:49.118Z,79.43
2023-01-13T19:59:35.559Z,79.42
2023-01-13T20:02:28.715Z,80.29
2023-01-13T20:05:18.105Z,79.61
2023-01-13T20:08:03.507Z,81.98
2023-01-13T20:10:49.668Z,80.68
2023-01-13T20:13:35.232Z,80.10
2023-01-13T20:16:21.042Z,81.04
2023-01-13T20:19:06.302Z,81.70
2023-01-13T20:21:51.584Z,79.96
2023-01-13T20:24:37.025Z,80.00
2023-01-13T20:27:24.057Z,81.19
2023-01-13T20:30:13.420Z,81.71
2023-01-13T20:32:59.108Z,81.64
2023-01-13T20:35:45.361Z,81.02
2023-01-13T20:38:37.896Z,81.78
2023-01-13T20:41:41.851Z,80.71
2023-01-13T20:44:28.041Z,81.23
2023-01-13T20:47:14.509Z,81.38
2023-01-13T20:50:00.317Z,82.27
2023-01-13T20:52:46.413Z,80.11
2023-01-13T20:55:31.700Z,81.13
2023-01-13T20:58:17.160Z,81.62
2023-01-13T21:01:02.748Z,81.79
2023-01-13T21:03:48.476Z,80.48
2023-01-13T21:06:34.331Z,80.55
2023-01-13T21:09:19.709Z,79.66
2023-01-13T21:12:24.391Z,80.65
2023-01-13T21:15:18.029Z,82.22
2023-01-13T21:18:22.394Z,80.63
2023-01-13T21:21:13.933Z,80.27
2023-01-13T21:23:59.648Z,80.48
2023-01-13T21:26:45.538Z,82.62
2023-01-13T21:29:31.019Z,81.76
2023-01-13T21:32:16.343Z,82.18
2023-01-13T21:35:02.190Z,81.64
2023-01-13T21:37:47.635Z,80.00
2023-01-13T21:40:32.846Z,82.05
2023-01-13T21:43:53.721Z,81.98
2023-01-13T21:46:58.017Z,82.28
2023-01-13T21:49:44.653Z,81.07
2023-01-13T21:52:30.125Z,82.08
2023-01-13T21:55:28.408Z,83.40
2023-01-13T21:58:14.510Z,82.61
2023-01-13T22:01:02.418Z,83.23
2023-01-13T22:04:08.290Z,84.54
2023-01-13T22:06:53.754Z,83.42
2023-01-13T22:09:40.903Z,83.30
2023-01-13T22:12:26.931Z,82.79
2023-01-13T22:15:15.053Z,83.57
2023-01-13T22:18:00.419Z,83.87
2023-01-13T22:20:46.234Z,84.09
2023-01-13T22:23:31.694Z,84.75
2023-01-13T22:26:17.675Z,84.76
2023-01-13T22:29:03.220Z,84.73
2023-01-13T22:31:48.432Z,85.33
2023-01-13T22:34:34.212Z,85.23
2023-01-13T22:37:19.436Z,86.44
2023-01-13T22:40:06.687Z,85.79
2023-01-13T22:42:52.412Z,85.03
2023-01-13T22:45:38.997Z,85.00
2023-01-13T22:48:24.682Z,85.59
2023-01-13T22:51:13.013Z,85.51
2023-01-13T22:53:58.359Z,84.78
2023-01-13T22:56:44.335Z,84.80
2023-01-13T22:59:31.567Z,84.09
2023-01-13T23:02:17.102Z,84.67
2023-01-13T23:05:02.585Z,85.01
2023-01-13T23:07:47.913Z,84.67
2023-01-13T23:10:33.518Z,84.42
2023-01-13T23:13:19.259Z,84.57
2023-01-13T23:16:07.196Z,85.11
2023-01-13T23:18:53.611Z,85.32
2023-01-13T23:21:39.360Z,85.08
2023-01-13T23:24:26.023Z,84.99
2023-01-13T23:27:11.683Z,84.63
2023-01-13T23:29:57.085Z,85.04
2023-01-13T23:32:43.483Z,84.64
2023-01-13T23:35:36.999Z,84.60
2023-01-13T23:38:23.609Z,84.50
2023-01-13T23:41:11.015Z,85.12
2023-01-13T23:43:59.201Z,85.10
2023-01-13T23:46:44.727Z,85.41
2023-01-13T23:49:30.431Z,85.24
2023-01-13T23:52:15.831Z,85.35
2023-01-13T23:55:01.370Z,84.88
2023-01-13T23:57:46.644Z,84.89
